Time;durP1;ratioP1;P1;durP2;ratioP2;P2;SDS_P1;SDS_P2;PMS_P1;PMS_P2;Temp;Humidity;BMP_temperature;BMP_pressure;BME280_temperature;BME280_humidity;BME280_pressure;Samples;Min_cycle;Max_cycle;Signal;HPM_P1;HPM_P2
2023/09/20 00:00:54;;;;;;;4.97;1.55;;;;;;;;;;4954840;28;20086;-65
2023/09/20 00:03:19;;;;;;;6.30;1.60;;;;;;;;;;4955191;28;20058;-66
2023/09/20 00:05:47;;;;;;;7.68;1.70;;;;;;;;;;4955218;28;20082;-67
2023/09/20 00:08:16;;;;;;;5.40;1.60;;;;;;;;;;4972183;28;20027;-65
2023/09/20 00:10:41;;;;;;;7.05;1.55;;;;;;;;;;4974170;28;20034;-65
2023/09/20 00:13:09;;;;;;;4.65;1.60;;;;;;;;;;4974291;28;20353;-65
2023/09/20 00:15:35;;;;;;;4.15;1.48;;;;;;;;;;4974237;28;20106;-65
2023/09/20 00:18:00;;;;;;;7.40;1.88;;;;;;;;;;4974294;28;20065;-65
2023/09/20 00:20:26;;;;;;;5.95;1.70;;;;;;;;;;4974120;28;20115;-65
2023/09/20 00:22:51;;;;;;;5.00;1.50;;;;;;;;;;4974210;28;20480;-65
2023/09/20 00:25:17;;;;;;;5.35;1.95;;;;;;;;;;4973702;28;20023;-65
2023/09/20 00:27:46;;;;;;;4.50;1.50;;;;;;;;;;4974046;28;20027;-66
2023/09/20 00:30:15;;;;;;;2.63;1.45;;;;;;;;;;4974001;28;20105;-65
2023/09/20 00:32:42;;;;;;;5.90;1.70;;;;;;;;;;4974043;28;20042;-66
2023/09/20 00:35:12;;;;;;;3.90;1.70;;;;;;;;;;4974023;28;20384;-65
2023/09/20 00:37:42;;;;;;;5.03;1.65;;;;;;;;;;4974006;28;20027;-68
2023/09/20 00:40:16;;;;;;;2.93;1.33;;;;;;;;;;4963774;28;20047;-66
2023/09/20 00:42:45;;;;;;;7.93;1.83;;;;;;;;;;4954835;28;20040;-65
2023/09/20 00:45:13;;;;;;;5.72;1.60;;;;;;;;;;4954667;28;20102;-66
2023/09/20 00:47:40;;;;;;;6.22;1.88;;;;;;;;;;4954638;28;20031;-64
2023/09/20 00:50:08;;;;;;;6.05;1.65;;;;;;;;;;4954512;28;20023;-65
2023/09/20 00:52:38;;;;;;;7.50;1.42;;;;;;;;;;4954557;29;20133;-65
2023/09/20 00:55:04;;;;;;;;;;;;;;;;;;4954727;28;20023;-65
2023/09/20 00:57:29;;;;;;;4.75;1.58;;;;;;;;;;4954556;28;19969;-64
2023/09/20 00:59:55;;;;;;;5.63;1.52;;;;;;;;;;4954376;28;20114;-66
2023/09/20 01:02:21;;;;;;;4.38;1.60;;;;;;;;;;4955553;28;20047;-64
2023/09/20 01:04:47;;;;;;;6.60;1.60;;;;;;;;;;4958312;28;20027;-65
2023/09/20 01:07:12;;;;;;;6.85;1.60;;;;;;;;;;4967385;28;20126;-65
2023/09/20 01:09:40;;;;;;;4.75;1.50;;;;;;;;;;4977129;28;20058;-63
2023/09/20 01:12:06;;;;;;;7.05;1.80;;;;;;;;;;4977470;28;20062;-65
2023/09/20 01:14:31;;;;;;;6.00;1.83;;;;;;;;;;4977335;28;20058;-66
2023/09/20 01:16:57;;;;;;;5.53;1.60;;;;;;;;;;4977358;28;20031;-65
2023/09/20 01:19:22;;;;;;;4.78;1.70;;;;;;;;;;4977206;28;20038;-65
2023/09/20 01:21:47;;;;;;;7.00;1.95;;;;;;;;;;4977341;28;20163;-64
2023/09/20 01:24:14;;;;;;;4.88;1.88;;;;;;;;;;4976993;28;20018;-65
2023/09/20 01:26:42;;;;;;;6.93;1.40;;;;;;;;;;4977145;28;20035;-66
2023/09/20 01:29:07;;;;;;;3.85;1.60;;;;;;;;;;4976995;28;20170;-66
2023/09/20 01:31:33;;;;;;;5.65;2.47;;;;;;;;;;4977051;28;20109;-65
2023/09/20 01:33:59;;;;;;;6.10;1.90;;;;;;;;;;4977182;28;20030;-66
2023/09/20 01:36:24;;;;;;;5.80;1.83;;;;;;;;;;4977144;28;20116;-65
2023/09/20 01:38:50;;;;;;;4.13;1.52;;;;;;;;;;4976760;28;20057;-65
2023/09/20 01:41:18;;;;;;;7.10;2.03;;;;;;;;;;4957630;28;20094;-67
2023/09/20 01:43:44;;;;;;;5.63;1.88;;;;;;;;;;4957655;28;20028;-66
2023/09/20 01:46:10;;;;;;;5.07;1.85;;;;;;;;;;4957542;28;20110;-65
2023/09/20 01:48:36;;;;;;;6.45;1.70;;;;;;;;;;4957483;28;20066;-65
2023/09/20 01:51:03;;;;;;;5.43;1.80;;;;;;;;;;4957423;28;20031;-65
2023/09/20 01:53:28;;;;;;;7.13;1.88;;;;;;;;;;4957236;28;20027;-66
2023/09/20 01:55:57;;;;;;;4.50;1.70;;;;;;;;;;4957322;28;20031;-65
2023/09/20 01:58:23;;;;;;;5.80;1.75;;;;;;;;;;4957121;28;20469;-65
2023/09/20 02:00:50;;;;;;;4.32;1.67;;;;;;;;;;4956999;28;20093;-65
2023/09/20 02:03:16;;;;;;;4.50;1.73;;;;;;;;;;4957272;28;20028;-63
2023/09/20 02:05:47;;;;;;;6.07;1.75;;;;;;;;;;4957193;28;20048;-65
2023/09/20 02:08:13;;;;;;;5.75;2.00;;;;;;;;;;4974212;28;20120;-65
2023/09/20 02:10:39;;;;;;;6.47;1.75;;;;;;;;;;4976452;28;20030;-65
2023/09/20 02:13:06;;;;;;;8.07;2.20;;;;;;;;;;4976166;28;20033;-66
2023/09/20 02:15:34;;;;;;;5.53;1.80;;;;;;;;;;4976364;28;20026;-66
2023/09/20 02:18:05;;;;;;;5.75;1.73;;;;;;;;;;4976480;28;20038;-63
2023/09/20 02:20:34;;;;;;;8.95;2.50;;;;;;;;;;4976000;28;20519;-68
2023/09/20 02:23:00;;;;;;;5.10;1.98;;;;;;;;;;4976198;28;20110;-65
2023/09/20 02:25:26;;;;;;;3.83;1.70;;;;;;;;;;4975946;28;20026;-65
2023/09/20 02:27:54;;;;;;;5.30;1.60;;;;;;;;;;4975871;28;20023;-66
2023/09/20 02:30:24;;;;;;;4.93;1.75;;;;;;;;;;4975971;28;20416;-66
2023/09/20 02:32:52;;;;;;;7.35;1.98;;;;;;;;;;4976129;28;20054;-66
2023/09/20 02:35:22;;;;;;;5.03;1.50;;;;;;;;;;4975659;28;20026;-65
2023/09/20 02:37:49;;;;;;;5.10;1.70;;;;;;;;;;4975809;28;20030;-65
2023/09/20 02:40:15;;;;;;;5.30;1.50;;;;;;;;;;4964840;28;20130;-65
2023/09/20 02:42:45;;;;;;;6.90;2.42;;;;;;;;;;4956600;28;20452;-66
2023/09/20 02:45:12;;;;;;;5.65;1.88;;;;;;;;;;4956231;28;20058;-65
2023/09/20 02:47:39;;;;;;;6.43;1.90;;;;;;;;;;4956483;28;20460;-65
2023/09/20 02:50:07;;;;;;;6.60;2.05;;;;;;;;;;4956201;28;20042;-63
2023/09/20 02:52:35;;;;;;;5.38;1.65;;;;;;;;;;4956450;28;20023;-65
2023/09/20 02:55:03;;;;;;;5.22;1.50;;;;;;;;;;4956332;28;20102;-65
2023/09/20 02:57:29;;;;;;;3.85;1.50;;;;;;;;;;4955836;28;20229;-64
2023/09/20 02:59:55;;;;;;;4.35;1.77;;;;;;;;;;4956146;28;20094;-64
2023/09/20 03:02:20;;;;;;;5.68;1.80;;;;;;;;;;4955921;28;20505;-68
2023/09/20 03:04:46;;;;;;;3.72;1.80;;;;;;;;;;4955942;28;20523;-65
2023/09/20 03:07:11;;;;;;;5.20;1.77;;;;;;;;;;4965066;28;20058;-65
2023/09/20 03:09:37;;;;;;;5.18;1.52;;;;;;;;;;4975365;28;20031;-66
2023/09/20 03:12:06;;;;;;;6.80;1.85;;;;;;;;;;4975193;28;20057;-65
2023/09/20 03:14:39;;;;;;;5.28;1.50;;;;;;;;;;4975138;28;20031;-67
2023/09/20 03:17:05;;;;;;;4.43;1.80;;;;;;;;;;4975149;28;20567;-64
2023/09/20 03:19:31;;;;;;;4.93;1.80;;;;;;;;;;4974686;28;20495;-67
2023/09/20 03:21:59;;;;;;;5.38;2.00;;;;;;;;;;4975044;28;20030;-67
2023/09/20 03:24:25;;;;;;;8.05;1.67;;;;;;;;;;4974349;28;20027;-67
2023/09/20 03:26:52;;;;;;;4.80;1.70;;;;;;;;;;4974831;28;20027;-65
2023/09/20 03:29:17;;;;;;;4.60;1.70;;;;;;;;;;4974804;28;20500;-65
2023/09/20 03:31:44;;;;;;;5.82;3.00;;;;;;;;;;4974865;28;20022;-67
2023/09/20 03:34:11;;;;;;;6.30;1.95;;;;;;;;;;4974680;28;20050;-65
2023/09/20 03:36:38;;;;;;;7.30;1.98;;;;;;;;;;4974719;28;20023;-65
2023/09/20 03:39:05;;;;;;;7.18;2.15;;;;;;;;;;4973072;28;20030;-66
2023/09/20 03:41:31;;;;;;;10.40;2.13;;;;;;;;;;4955230;29;20054;-65
2023/09/20 03:43:56;;;;;;;5.85;1.73;;;;;;;;;;4955500;28;20058;-65
2023/09/20 03:46:22;;;;;;;4.97;1.80;;;;;;;;;;4955333;28;20031;-64
2023/09/20 03:48:47;;;;;;;8.48;2.05;;;;;;;;;;4955094;28;20106;-65
2023/09/20 03:51:15;;;;;;;4.05;1.70;;;;;;;;;;4955284;28;20118;-65
2023/09/20 03:53:44;;;;;;;5.90;1.85;;;;;;;;;;4955258;28;20031;-65
2023/09/20 03:56:11;;;;;;;5.57;1.75;;;;;;;;;;4955115;28;20031;-65
2023/09/20 03:58:37;;;;;;;4.43;1.40;;;;;;;;;;4955197;28;20420;-66
2023/09/20 04:01:03;;;;;;;5.35;1.73;;;;;;;;;;4954919;28;20418;-66
2023/09/20 04:03:28;;;;;;;6.65;1.63;;;;;;;;;;4954918;28;20031;-65
2023/09/20 04:05:57;;;;;;;5.05;1.50;;;;;;;;;;4954956;28;20083;-65
2023/09/20 04:08:22;;;;;;;7.32;1.50;;;;;;;;;;4973266;28;20559;-66
2023/09/20 04:10:48;;;;;;;4.50;1.50;;;;;;;;;;4973966;28;20185;-65
2023/09/20 04:13:17;;;;;;;6.53;1.80;;;;;;;;;;4974240;28;20428;-66
2023/09/20 04:15:44;;;;;;;4.50;1.50;;;;;;;;;;4974163;28;20031;-65
2023/09/20 04:18:13;;;;;;;4.30;1.55;;;;;;;;;;4973868;28;20034;-64
2023/09/20 04:20:39;;;;;;;4.97;1.42;;;;;;;;;;4974023;28;20061;-62
2023/09/20 04:23:06;;;;;;;7.78;1.55;;;;;;;;;;4974048;28;20027;-68
2023/09/20 04:25:31;;;;;;;7.22;1.50;;;;;;;;;;4973896;28;20357;-64
2023/09/20 04:27:57;;;;;;;6.03;1.80;;;;;;;;;;4973870;28;20031;-65
2023/09/20 04:30:22;;;;;;;6.03;1.65;;;;;;;;;;4973960;28;20018;-66
2023/09/20 04:32:48;;;;;;;4.57;1.40;;;;;;;;;;4973790;28;20030;-65
2023/09/20 04:35:13;;;;;;;5.65;1.40;;;;;;;;;;4973921;28;20023;-64
2023/09/20 04:37:39;;;;;;;4.30;1.23;;;;;;;;;;4973025;28;20026;-63
2023/09/20 04:40:08;;;;;;;6.55;1.80;;;;;;;;;;4964012;28;20091;-65
2023/09/20 04:42:35;;;;;;;5.38;1.70;;;;;;;;;;4954640;28;20106;-68
2023/09/20 04:45:06;;;;;;;6.55;1.50;;;;;;;;;;4954624;28;20023;-66
2023/09/20 04:47:32;;;;;;;6.25;2.00;;;;;;;;;;4954309;28;20028;-65
2023/09/20 04:49:57;;;;;;;7.70;1.90;;;;;;;;;;4954514;28;20038;-66
2023/09/20 04:52:23;;;;;;;3.88;1.50;;;;;;;;;;4954510;28;20042;-65
2023/09/20 04:54:49;;;;;;;6.07;1.40;;;;;;;;;;4954498;28;20054;-65
2023/09/20 04:57:15;;;;;;;6.50;1.48;;;;;;;;;;4954470;28;20118;-65
2023/09/20 04:59:41;;;;;;;5.65;1.83;;;;;;;;;;4954059;28;20102;-62
2023/09/20 05:02:07;;;;;;;4.35;1.65;;;;;;;;;;4954127;28;20441;-67
2023/09/20 05:04:34;;;;;;;6.28;1.73;;;;;;;;;;4954277;28;20543;-67
2023/09/20 05:07:07;;;;;;;3.80;1.60;;;;;;;;;;4961775;28;20066;-66
2023/09/20 05:09:34;;;;;;;8.88;1.80;;;;;;;;;;4973351;28;20438;-68
2023/09/20 05:12:00;;;;;;;3.30;1.40;;;;;;;;;;4973664;28;20026;-67
2023/09/20 05:14:27;;;;;;;6.10;1.50;;;;;;;;;;4973417;28;20069;-65
2023/09/20 05:16:52;;;;;;;4.68;1.70;;;;;;;;;;4973529;28;20027;-67
2023/09/20 05:19:18;;;;;;;7.30;1.63;;;;;;;;;;4973347;28;20046;-67
2023/09/20 05:21:44;;;;;;;5.65;1.90;;;;;;;;;;4973445;28;20047;-65
2023/09/20 05:24:09;;;;;;;6.75;1.75;;;;;;;;;;4973063;28;20077;-65
2023/09/20 05:26:34;;;;;;;7.03;1.73;;;;;;;;;;4973384;28;20026;-67
2023/09/20 05:29:00;;;;;;;6.30;1.80;;;;;;;;;;4972925;28;20055;-63
2023/09/20 05:31:26;;;;;;;4.95;1.40;;;;;;;;;;4973283;28;20082;-65
2023/09/20 05:33:52;;;;;;;8.48;1.98;;;;;;;;;;4973498;28;20089;-64
2023/09/20 05:36:21;;;;;;;6.38;1.50;;;;;;;;;;4973485;28;20034;-64
2023/09/20 05:38:48;;;;;;;7.20;1.85;;;;;;;;;;4973034;28;20453;-65
2023/09/20 05:41:15;;;;;;;4.25;1.75;;;;;;;;;;4954400;28;20046;-62
2023/09/20 05:43:42;;;;;;;3.60;1.50;;;;;;;;;;4953905;28;20027;-63
2023/09/20 05:46:08;;;;;;;5.13;1.40;;;;;;;;;;4952678;28;20047;-65
2023/09/20 05:48:34;;;;;;;3.58;1.40;;;;;;;;;;4955247;28;20027;-65
2023/09/20 05:51:00;;;;;;;4.50;1.95;;;;;;;;;;4957282;29;20031;-66
2023/09/20 05:53:26;;;;;;;2.50;1.40;;;;;;;;;;4957474;28;20027;-65
2023/09/20 05:55:51;;;;;;;5.45;1.70;;;;;;;;;;4957528;28;20038;-66
2023/09/20 05:58:17;;;;;;;16.63;2.00;;;;;;;;;;4957165;28;20548;-67
2023/09/20 06:00:42;;;;;;;6.68;2.00;;;;;;;;;;4955593;28;20468;-66
2023/09/20 06:03:11;;;;;;;3.90;1.48;;;;;;;;;;4957190;29;20027;-64
2023/09/20 06:05:37;;;;;;;7.05;1.92;;;;;;;;;;4957179;28;20039;-64
2023/09/20 06:08:05;;;;;;;10.38;1.83;;;;;;;;;;4972622;28;20031;-66
2023/09/20 06:10:31;;;;;;;4.90;1.90;;;;;;;;;;4976499;28;20063;-65
2023/09/20 06:12:56;;;;;;;7.13;1.80;;;;;;;;;;4976234;28;20050;-66
2023/09/20 06:15:22;;;;;;;5.75;1.70;;;;;;;;;;4976486;28;20026;-66
2023/09/20 06:17:47;;;;;;;8.05;2.15;;;;;;;;;;4976276;28;20384;-66
2023/09/20 06:20:19;;;;;;;6.07;2.00;;;;;;;;;;4976206;28;20069;-66
2023/09/20 06:22:46;;;;;;;10.60;1.65;;;;;;;;;;4976259;28;20449;-67
2023/09/20 06:25:12;;;;;;;8.13;1.80;;;;;;;;;;4976053;28;20070;-67
2023/09/20 06:27:39;;;;;;;7.85;2.10;;;;;;;;;;4975696;28;20062;-66
2023/09/20 06:30:12;;;;;;;5.60;2.17;;;;;;;;;;4975882;28;20027;-66
2023/09/20 06:32:38;;;;;;;7.00;1.83;;;;;;;;;;4976110;28;20451;-66
2023/09/20 06:35:04;;;;;;;5.45;1.92;;;;;;;;;;4975904;28;20027;-66
2023/09/20 06:37:30;;;;;;;8.75;2.10;;;;;;;;;;4975980;28;20108;-66
2023/09/20 06:39:56;;;;;;;10.75;2.00;;;;;;;;;;4967424;28;20484;-66
2023/09/20 06:42:23;;;;;;;4.53;1.98;;;;;;;;;;4956208;28;20108;-65
2023/09/20 06:44:49;;;;;;;8.18;2.00;;;;;;;;;;4956557;28;20027;-66
2023/09/20 06:47:17;;;;;;;5.90;1.92;;;;;;;;;;4956356;28;20023;-66
2023/09/20 06:49:42;;;;;;;6.30;1.63;;;;;;;;;;4956486;28;20024;-66
2023/09/20 06:52:08;;;;;;;7.50;2.10;;;;;;;;;;4956429;28;20024;-66
2023/09/20 06:54:36;;;;;;;7.10;2.42;;;;;;;;;;4956411;28;20425;-65
2023/09/20 06:57:05;;;;;;;8.48;1.88;;;;;;;;;;4954775;28;20086;-65
2023/09/20 06:59:34;;;;;;;4.10;1.50;;;;;;;;;;4955124;28;20041;-67
2023/09/20 07:02:00;;;;;;;7.17;1.90;;;;;;;;;;4955990;28;20039;-64
2023/09/20 07:04:26;;;;;;;6.05;1.67;;;;;;;;;;4956169;28;20031;-66
2023/09/20 07:06:55;;;;;;;7.25;1.60;;;;;;;;;;4962062;28;20436;-65
2023/09/20 07:09:21;;;;;;;4.70;1.35;;;;;;;;;;4975332;28;20101;-63
2023/09/20 07:11:48;;;;;;;6.32;1.42;;;;;;;;;;4975193;28;20034;-65
2023/09/20 07:14:20;;;;;;;5.70;1.80;;;;;;;;;;4975522;28;20480;-64
2023/09/20 07:16:49;;;;;;;3.40;1.50;;;;;;;;;;4975312;28;20027;-64
2023/09/20 07:19:17;;;;;;;10.73;1.92;;;;;;;;;;4975198;28;20619;-62
2023/09/20 07:21:43;;;;;;;22.27;2.30;;;;;;;;;;4975137;28;20029;-64
2023/09/20 07:24:12;;;;;;;10.70;2.08;;;;;;;;;;4973705;28;20539;-64
2023/09/20 07:26:39;;;;;;;6.32;1.60;;;;;;;;;;4974573;28;20046;-62
2023/09/20 07:29:05;;;;;;;7.57;1.83;;;;;;;;;;4974816;28;20059;-65
2023/09/20 07:31:36;;;;;;;8.15;1.80;;;;;;;;;;4974882;28;20525;-65
2023/09/20 07:34:03;;;;;;;7.40;1.70;;;;;;;;;;4973695;28;20038;-65
2023/09/20 07:36:30;;;;;;;8.25;1.88;;;;;;;;;;4974874;28;20042;-65
2023/09/20 07:38:56;;;;;;;5.25;1.65;;;;;;;;;;4974312;28;20030;-65
2023/09/20 07:41:22;;;;;;;7.70;1.60;;;;;;;;;;4955061;29;20053;-65
2023/09/20 07:43:47;;;;;;;7.18;1.40;;;;;;;;;;4955484;28;20490;-63
2023/09/20 07:46:14;;;;;;;8.07;1.67;;;;;;;;;;4955465;28;20103;-64
2023/09/20 07:48:50;;;;;;;7.47;1.33;;;;;;;;;;4955165;28;20050;-65
2023/09/20 07:51:29;;;;;;;14.35;2.05;;;;;;;;;;4955269;28;20030;-63
2023/09/20 07:53:55;;;;;;;6.15;1.55;;;;;;;;;;4955050;28;20086;-64
2023/09/20 07:56:20;;;;;;;11.07;1.67;;;;;;;;;;4955178;28;20378;-62
2023/09/20 07:58:47;;;;;;;8.02;1.50;;;;;;;;;;4955189;28;20024;-65
2023/09/20 08:01:21;;;;;;;5.93;1.45;;;;;;;;;;4954975;28;20051;-65
2023/09/20 08:03:58;;;;;;;4.57;1.50;;;;;;;;;;4955150;28;20395;-64
2023/09/20 08:06:28;;;;;;;4.95;1.88;;;;;;;;;;4957277;28;20034;-65
2023/09/20 08:08:56;;;;;;;8.55;1.75;;;;;;;;;;4974152;28;20019;-64
2023/09/20 08:11:21;;;;;;;13.02;1.83;;;;;;;;;;4974334;28;20421;-64
2023/09/20 08:13:48;;;;;;;16.15;2.15;;;;;;;;;;4974398;28;20117;-62
2023/09/20 08:16:15;;;;;;;13.57;1.40;;;;;;;;;;4974313;28;20023;-64
2023/09/20 08:21:25;;;;;;;6.45;1.48;;;;;;;;;;4974089;28;20169;-62
2023/09/20 09:02:18;;;;;;;4.90;1.60;;;;;;;;;;4954292;29;20050;-63
2023/09/20 09:04:49;;;;;;;3.33;1.30;;;;;;;;;;4954125;28;20027;-63
2023/09/20 09:07:16;;;;;;;4.85;1.60;;;;;;;;;;4963476;28;20118;-64
2023/09/20 09:09:41;;;;;;;6.25;1.85;;;;;;;;;;4973743;28;20034;-64
2023/09/20 09:12:09;;;;;;;5.70;1.83;;;;;;;;;;4973610;28;20114;-65
2023/09/20 09:14:37;;;;;;;3.58;1.50;;;;;;;;;;4973716;28;20482;-62
2023/09/20 09:17:04;;;;;;;6.22;1.65;;;;;;;;;;4973637;28;20027;-62
2023/09/20 09:19:30;;;;;;;6.72;1.60;;;;;;;;;;4973681;28;20147;-64
2023/09/20 09:21:59;;;;;;;6.13;1.42;;;;;;;;;;4990145;28;20078;-63
2023/09/20 09:24:27;;;;;;;13.10;1.52;;;;;;;;;;4991453;28;20027;-64
2023/09/20 09:27:06;;;;;;;11.65;1.73;;;;;;;;;;4977020;28;20035;-62
2023/09/20 09:29:32;;;;;;;10.07;1.80;;;;;;;;;;4977144;28;20461;-62
2023/09/20 09:32:00;;;;;;;6.97;1.73;;;;;;;;;;4977356;28;20045;-64
2023/09/20 09:34:26;;;;;;;6.93;1.50;;;;;;;;;;4977101;28;20019;-64
2023/09/20 09:36:53;;;;;;;5.53;1.50;;;;;;;;;;4977053;28;20053;-64
2023/09/20 09:39:19;;;;;;;3.70;1.20;;;;;;;;;;4973520;28;20031;-65
2023/09/20 09:41:46;;;;;;;4.97;1.80;;;;;;;;;;4957496;28;20035;-64
2023/09/20 09:44:12;;;;;;;9.50;1.60;;;;;;;;;;4957573;28;20497;-65
2023/09/20 09:46:41;;;;;;;5.75;1.42;;;;;;;;;;4957649;29;20031;-63
2023/09/20 09:49:11;;;;;;;5.15;1.50;;;;;;;;;;4957573;28;20073;-62
2023/09/20 09:51:50;;;;;;;10.10;1.80;;;;;;;;;;4957230;28;20043;-62
2023/09/20 09:54:17;;;;;;;6.50;1.58;;;;;;;;;;4957820;28;20031;-63
2023/09/20 09:56:42;;;;;;;7.10;1.50;;;;;;;;;;4956204;29;20154;-65
2023/09/20 09:59:08;;;;;;;6.57;1.58;;;;;;;;;;4957366;28;20117;-64
2023/09/20 10:01:36;;;;;;;8.73;1.70;;;;;;;;;;4957060;28;20047;-63
2023/09/20 10:04:05;;;;;;;5.97;1.80;;;;;;;;;;4957330;28;20030;-65
2023/09/20 10:06:37;;;;;;;7.70;1.80;;;;;;;;;;4960145;28;20105;-64
2023/09/20 10:09:10;;;;;;;3.75;1.58;;;;;;;;;;4976433;28;20027;-66
2023/09/20 10:11:37;;;;;;;9.88;1.70;;;;;;;;;;4976343;28;20022;-64
2023/09/20 10:14:07;;;;;;;8.43;1.63;;;;;;;;;;4976301;28;20019;-65
2023/09/20 10:16:39;;;;;;;8.73;2.00;;;;;;;;;;4976056;28;20086;-63
2023/09/20 10:19:14;;;;;;;11.65;1.77;;;;;;;;;;4976066;28;20062;-65
2023/09/20 10:21:59;;;;;;;6.05;1.60;;;;;;;;;;4976052;28;20039;-65
2023/09/20 10:24:27;;;;;;;6.38;1.65;;;;;;;;;;4975996;28;20021;-62
2023/09/20 10:26:57;;;;;;;8.82;2.15;;;;;;;;;;4975926;28;20026;-64
2023/09/20 10:29:26;;;;;;;5.93;1.42;;;;;;;;;;4976001;28;20050;-64
2023/09/20 10:31:55;;;;;;;14.23;2.20;;;;;;;;;;4976082;28;20027;-65
2023/09/20 10:34:22;;;;;;;;;;;;;;;;;;4976235;28;20054;-65
2023/09/20 10:36:52;;;;;;;9.60;2.00;;;;;;;;;;4975768;28;19910;-65
2023/09/20 10:39:17;;;;;;;;;;;;;;;;;;4973248;28;20043;-66
2023/09/20 10:41:44;;;;;;;5.10;1.40;;;;;;;;;;4956498;29;20395;-66
2023/09/20 10:44:28;;;;;;;5.60;1.50;;;;;;;;;;4956620;28;20382;-65
2023/09/20 10:46:55;;;;;;;3.35;1.48;;;;;;;;;;4956450;28;20066;-65
2023/09/20 10:49:47;;;;;;;3.42;1.45;;;;;;;;;;4956259;28;20097;-65
2023/09/20 10:52:56;;;;;;;6.63;2.00;;;;;;;;;;4956448;28;20023;-65
2023/09/20 10:55:24;;;;;;;7.70;1.80;;;;;;;;;;4935012;29;20036;-64
2023/09/20 10:57:50;;;;;;;6.78;2.00;;;;;;;;;;4935008;29;20130;-65
2023/09/20 11:00:25;;;;;;;8.65;1.60;;;;;;;;;;4935059;29;20523;-66
2023/09/20 11:02:52;;;;;;;8.25;1.60;;;;;;;;;;4935005;29;20095;-64
2023/09/20 11:05:22;;;;;;;5.57;1.70;;;;;;;;;;4934677;29;20039;-65
2023/09/20 11:07:47;;;;;;;;;;;;;;;;;;4948823;29;20027;-65
2023/09/20 11:10:17;;;;;;;4.90;1.40;;;;;;;;;;4953917;29;19937;-64
2023/09/20 11:12:43;;;;;;;8.43;1.73;;;;;;;;;;4954006;29;20031;-65
2023/09/20 11:15:10;;;;;;;5.40;1.40;;;;;;;;;;4953897;29;20493;-64
2023/09/20 11:17:36;;;;;;;5.18;1.70;;;;;;;;;;4953489;29;20051;-65
2023/09/20 11:20:04;;;;;;;7.65;1.30;;;;;;;;;;4953884;29;20327;-63
2023/09/20 11:22:31;;;;;;;8.85;1.30;;;;;;;;;;4953433;29;20062;-63
2023/09/20 11:24:57;;;;;;;9.93;1.50;;;;;;;;;;4953666;29;20035;-65
2023/09/20 11:27:24;;;;;;;5.40;1.45;;;;;;;;;;4953583;29;20071;-65
2023/09/20 11:29:50;;;;;;;3.97;1.08;;;;;;;;;;4955835;28;20448;-66
2023/09/20 11:32:21;;;;;;;10.20;1.23;;;;;;;;;;4974728;28;20026;-65
2023/09/20 11:34:49;;;;;;;5.68;1.48;;;;;;;;;;4975012;28;20034;-64
2023/09/20 11:37:18;;;;;;;7.25;1.45;;;;;;;;;;4974755;28;20042;-62
2023/09/20 11:39:48;;;;;;;4.38;1.20;;;;;;;;;;4967916;28;20039;-64
2023/09/20 11:42:24;;;;;;;6.22;1.63;;;;;;;;;;4955608;28;20031;-66
2023/09/20 11:45:03;;;;;;;9.23;1.38;;;;;;;;;;4955294;28;20043;-63
2023/09/20 11:47:34;;;;;;;11.25;1.25;;;;;;;;;;4954783;28;20106;-65
2023/09/20 11:50:00;;;;;;;4.38;1.58;;;;;;;;;;4954176;29;20031;-64
2023/09/20 11:52:27;;;;;;;7.13;1.50;;;;;;;;;;4955282;28;20353;-63
2023/09/20 11:54:56;;;;;;;9.80;1.50;;;;;;;;;;4955371;28;20042;-63
2023/09/20 11:57:24;;;;;;;9.50;1.98;;;;;;;;;;4955303;28;20062;-65
2023/09/20 11:59:50;;;;;;;7.72;1.40;;;;;;;;;;4955064;28;20059;-63
2023/09/20 12:02:16;;;;;;;7.07;1.38;;;;;;;;;;4954865;28;20078;-63
2023/09/20 12:04:43;;;;;;;8.32;1.50;;;;;;;;;;4954999;28;20026;-65
2023/09/20 12:07:09;;;;;;;5.50;1.50;;;;;;;;;;4962932;28;20078;-63
2023/09/20 12:09:36;;;;;;;4.88;1.20;;;;;;;;;;4974202;28;20039;-65
2023/09/20 12:12:05;;;;;;;7.07;1.40;;;;;;;;;;4974297;28;20098;-63
2023/09/20 12:14:33;;;;;;;4.75;1.30;;;;;;;;;;4974172;28;20495;-63
2023/09/20 12:16:59;;;;;;;5.20;1.38;;;;;;;;;;4973922;28;20043;-63
2023/09/20 12:19:25;;;;;;;4.40;1.02;;;;;;;;;;4974090;28;20033;-66
2023/09/20 12:21:50;;;;;;;4.57;1.10;;;;;;;;;;4974105;28;20035;-63
2023/09/20 12:24:16;;;;;;;3.80;1.23;;;;;;;;;;4973744;28;20026;-65
2023/09/20 12:26:41;;;;;;;6.32;1.85;;;;;;;;;;4973979;28;20420;-65
2023/09/20 12:29:07;;;;;;;5.03;1.25;;;;;;;;;;4974036;28;20022;-65
2023/09/20 12:31:33;;;;;;;2.70;1.00;;;;;;;;;;4973761;28;20031;-64
2023/09/20 12:34:00;;;;;;;4.53;1.23;;;;;;;;;;4973889;28;20034;-65
2023/09/20 12:36:28;;;;;;;4.00;1.33;;;;;;;;;;4973818;28;20409;-65
2023/09/20 12:38:53;;;;;;;3.10;1.17;;;;;;;;;;4973794;28;20086;-62
2023/09/20 12:41:20;;;;;;;8.93;1.50;;;;;;;;;;4954451;28;20409;-62
2023/09/20 12:43:46;;;;;;;4.85;1.50;;;;;;;;;;4954459;28;20481;-65
2023/09/20 12:46:12;;;;;;;7.25;1.13;;;;;;;;;;4954342;28;20031;-63
2023/09/20 12:48:37;;;;;;;7.78;1.33;;;;;;;;;;4954525;28;20024;-65
2023/09/20 12:51:05;;;;;;;3.45;1.30;;;;;;;;;;4954617;28;20030;-64
2023/09/20 12:53:34;;;;;;;5.43;1.35;;;;;;;;;;4954529;28;20038;-62
2023/09/20 12:56:00;;;;;;;12.38;1.50;;;;;;;;;;4954581;28;20034;-63
2023/09/20 12:58:26;;;;;;;7.55;1.60;;;;;;;;;;4955840;28;20372;-65
2023/09/20 13:00:51;;;;;;;6.07;1.67;;;;;;;;;;4958177;28;20031;-64
2023/09/20 13:03:17;;;;;;;4.80;1.42;;;;;;;;;;4957271;28;20047;-66
2023/09/20 13:05:44;;;;;;;6.30;1.48;;;;;;;;;;4957054;28;20028;-65
2023/09/20 13:08:19;;;;;;;4.00;1.23;;;;;;;;;;4973132;28;20034;-63
2023/09/20 13:10:44;;;;;;;7.97;1.45;;;;;;;;;;4976318;28;20031;-64
2023/09/20 13:13:10;;;;;;;5.40;1.58;;;;;;;;;;4976001;28;20541;-65
2023/09/20 13:15:42;;;;;;;3.70;1.10;;;;;;;;;;4976032;28;20113;-66
2023/09/20 13:18:10;;;;;;;3.80;1.50;;;;;;;;;;4974732;28;20177;-63
2023/09/20 13:20:37;;;;;;;12.93;1.50;;;;;;;;;;4975934;28;20030;-63
2023/09/20 13:23:03;;;;;;;4.18;1.38;;;;;;;;;;4975841;28;20482;-65
2023/09/20 13:25:31;;;;;;;4.75;1.33;;;;;;;;;;4975863;28;20022;-63
2023/09/20 13:27:57;;;;;;;5.85;1.52;;;;;;;;;;4975344;28;20092;-63
2023/09/20 13:30:23;;;;;;;4.00;1.38;;;;;;;;;;4975878;28;20073;-63
2023/09/20 13:32:49;;;;;;;4.32;1.35;;;;;;;;;;4975885;28;20498;-66
2023/09/20 13:35:15;;;;;;;3.28;1.25;;;;;;;;;;4975907;28;20035;-65
2023/09/20 13:37:43;;;;;;;6.00;1.50;;;;;;;;;;4975524;28;20019;-65
2023/09/20 13:40:12;;;;;;;7.90;1.63;;;;;;;;;;4965630;28;20043;-62
2023/09/20 13:42:42;;;;;;;6.47;1.65;;;;;;;;;;4956155;29;20170;-65
2023/09/20 13:45:12;;;;;;;11.15;1.50;;;;;;;;;;4956330;28;20106;-65
2023/09/20 13:47:41;;;;;;;6.72;1.50;;;;;;;;;;4956345;28;20059;-64
2023/09/20 13:50:08;;;;;;;3.22;1.33;;;;;;;;;;4956424;28;20389;-64
2023/09/20 13:52:34;;;;;;;3.45;1.40;;;;;;;;;;4956300;28;20023;-62
2023/09/20 13:54:59;;;;;;;4.63;1.50;;;;;;;;;;4956157;28;20085;-65
2023/09/20 13:57:25;;;;;;;4.93;1.67;;;;;;;;;;4956002;28;20031;-64
2023/09/20 13:59:54;;;;;;;5.60;1.35;;;;;;;;;;4956194;28;20031;-64
2023/09/20 14:02:20;;;;;;;6.05;1.48;;;;;;;;;;4916327;28;1182176;-63
2023/09/20 14:04:46;;;;;;;5.13;1.40;;;;;;;;;;4957289;28;20050;-64
2023/09/20 14:07:15;;;;;;;8.00;2.08;;;;;;;;;;4966045;28;20030;-65
2023/09/20 14:09:41;;;;;;;8.20;1.83;;;;;;;;;;4975848;28;20092;-66
2023/09/20 14:12:15;;;;;;;3.88;1.60;;;;;;;;;;4976343;28;20073;-64
2023/09/20 14:14:41;;;;;;;3.85;1.60;;;;;;;;;;4976375;28;20038;-65
2023/09/20 14:17:06;;;;;;;4.22;1.40;;;;;;;;;;4976478;28;20096;-64
2023/09/20 14:19:35;;;;;;;5.97;1.58;;;;;;;;;;4976254;28;20058;-66
2023/09/20 14:22:03;;;;;;;5.88;1.98;;;;;;;;;;4976274;28;20122;-66
2023/09/20 14:24:29;;;;;;;7.05;1.52;;;;;;;;;;4976064;28;20492;-65
2023/09/20 14:26:57;;;;;;;3.88;1.48;;;;;;;;;;4975891;28;20026;-64
2023/09/20 14:29:23;;;;;;;8.18;1.95;;;;;;;;;;4975776;28;20071;-64
2023/09/20 14:31:49;;;;;;;7.43;1.65;;;;;;;;;;4976328;28;20058;-65
2023/09/20 14:34:15;;;;;;;7.75;2.08;;;;;;;;;;4975939;28;20034;-64
2023/09/20 14:36:42;;;;;;;5.15;1.67;;;;;;;;;;4975887;28;20023;-62
2023/09/20 14:39:08;;;;;;;4.30;1.55;;;;;;;;;;4972611;28;20058;-64
2023/09/20 14:41:34;;;;;;;9.65;1.83;;;;;;;;;;4956270;29;20035;-65
2023/09/20 14:44:03;;;;;;;8.18;1.65;;;;;;;;;;4956578;28;20111;-65
2023/09/20 14:46:28;;;;;;;6.65;2.00;;;;;;;;;;4956504;28;20034;-65
2023/09/20 14:48:53;;;;;;;4.43;1.55;;;;;;;;;;4956436;28;20417;-64
2023/09/20 14:51:19;;;;;;;5.78;2.03;;;;;;;;;;4956443;28;20027;-65
2023/09/20 14:53:44;;;;;;;4.88;1.60;;;;;;;;;;4956227;28;20027;-62
2023/09/20 14:56:11;;;;;;;5.93;1.50;;;;;;;;;;4956308;28;20030;-65
2023/09/20 14:58:37;;;;;;;7.18;1.75;;;;;;;;;;4956296;28;20034;-63
2023/09/20 15:01:13;;;;;;;4.63;1.52;;;;;;;;;;4956048;28;20039;-67
2023/09/20 15:03:39;;;;;;;4.60;1.70;;;;;;;;;;4956222;28;20047;-65
2023/09/20 15:06:06;;;;;;;6.05;1.58;;;;;;;;;;4955943;28;20029;-66
2023/09/20 15:08:31;;;;;;;4.25;1.75;;;;;;;;;;4955974;28;20031;-65
2023/09/20 15:10:58;;;;;;;6.63;1.65;;;;;;;;;;4955864;28;20030;-65
2023/09/20 15:13:23;;;;;;;6.90;1.70;;;;;;;;;;4955768;28;20031;-68
2023/09/20 15:15:49;;;;;;;6.70;1.42;;;;;;;;;;4956001;28;20035;-64
2023/09/20 15:18:14;;;;;;;5.80;1.58;;;;;;;;;;4955759;28;20035;-64
2023/09/20 15:20:43;;;;;;;6.13;1.45;;;;;;;;;;4955011;28;20033;-65
2023/09/20 15:23:08;;;;;;;7.07;1.77;;;;;;;;;;4955862;28;20038;-65
2023/09/20 15:25:34;;;;;;;8.85;1.70;;;;;;;;;;4968945;28;20026;-64